createdAt,value
2022-11-06T00:01:28.062Z,7.67
2022-11-06T00:03:55.047Z,7.66
2022-11-06T00:06:40.164Z,7.60
2022-11-06T00:09:08.055Z,7.63
2022-11-06T00:11:34.773Z,7.51
2022-11-06T00:14:01.925Z,7.36
2022-11-06T00:16:28.833Z,7.43
2022-11-06T00:18:55.295Z,7.50
2022-11-06T00:21:26.531Z,7.41
2022-11-06T00:23:53.539Z,7.45
2022-11-06T00:26:21.604Z,7.46
2022-11-06T00:28:48.669Z,7.43
2022-11-06T00:31:16.371Z,7.32
2022-11-06T00:33:43.287Z,7.31
2022-11-06T00:36:11.980Z,7.31
2022-11-06T00:38:38.544Z,7.21
2022-11-06T00:41:06.433Z,7.20
2022-11-06T00:43:33.814Z,7.21
2022-11-06T00:46:01.251Z,7.18
2022-11-06T00:48:27.939Z,7.18
2022-11-06T00:50:54.381Z,7.36
2022-11-06T00:53:21.108Z,7.42
2022-11-06T00:55:47.560Z,7.36
2022-11-06T00:58:14.564Z,7.41
2022-11-06T01:00:41.212Z,7.43
2022-11-06T01:03:07.761Z,7.35
2022-11-06T01:05:34.292Z,7.37
2022-11-06T01:08:00.725Z,7.43
2022-11-06T01:10:27.172Z,7.49
2022-11-06T01:12:53.621Z,7.57
2022-11-06T01:15:20.111Z,7.59
2022-11-06T01:17:46.630Z,7.63
2022-11-06T01:20:13.050Z,7.62
2022-11-06T01:22:39.503Z,7.60
2022-11-06T01:25:06.330Z,7.61
2022-11-06T01:27:32.830Z,7.75
2022-11-06T01:29:59.507Z,7.68
2022-11-06T01:32:25.972Z,7.71
2022-11-06T01:34:52.499Z,7.79
2022-11-06T01:37:19.085Z,7.83
2022-11-06T01:39:45.561Z,7.93
2022-11-06T01:42:13.330Z,8.12
2022-11-06T01:44:42.804Z,8.20
2022-11-06T01:47:19.938Z,8.24
2022-11-06T01:49:46.608Z,8.25
2022-11-06T01:52:14.570Z,8.31
2022-11-06T01:54:43.411Z,8.38
2022-11-06T01:57:11.036Z,8.41
2022-11-06T01:59:39.768Z,8.38
2022-11-06T02:02:06.799Z,8.48
2022-11-06T02:04:37.730Z,8.48
2022-11-06T02:07:05.403Z,8.51
2022-11-06T02:09:33.087Z,8.49
2022-11-06T02:12:05.493Z,8.51
2022-11-06T02:14:40.581Z,8.59
2022-11-06T02:17:10.162Z,8.64
2022-11-06T02:19:49.157Z,8.54
2022-11-06T02:22:27.916Z,8.63
2022-11-06T02:25:15.060Z,8.62
2022-11-06T02:27:46.208Z,8.83
2022-11-06T02:30:14.114Z,8.74
2022-11-06T02:32:43.602Z,8.74
2022-11-06T02:35:23.014Z,8.77
2022-11-06T02:37:53.901Z,8.79
2022-11-06T02:40:21.942Z,8.90
2022-11-06T02:42:50.435Z,8.79
2022-11-06T02:45:19.077Z,8.99
2022-11-06T02:47:47.872Z,8.84
2022-11-06T02:50:21.046Z,8.95
2022-11-06T02:52:50.313Z,9.05
2022-11-06T02:55:31.511Z,8.87
2022-11-06T02:58:01.101Z,8.84
2022-11-06T03:00:27.994Z,8.89
2022-11-06T03:03:03.257Z,8.83
2022-11-06T03:05:32.928Z,8.74
2022-11-06T03:08:08.714Z,8.78
2022-11-06T03:10:45.396Z,8.71
2022-11-06T03:13:18.048Z,8.66
2022-11-06T03:15:53.048Z,8.70
2022-11-06T03:18:22.512Z,8.69
2022-11-06T03:20:48.951Z,8.69
2022-11-06T03:23:18.419Z,8.70
2022-11-06T03:25:51.035Z,8.61
2022-11-06T03:28:31.133Z,8.84
2022-11-06T03:31:00.179Z,8.68
2022-11-06T03:33:38.329Z,8.80
2022-11-06T03:36:10.672Z,8.75
2022-11-06T03:38:43.362Z,8.83
2022-11-06T03:41:28.382Z,8.80
2022-11-06T03:43:57.875Z,8.74
2022-11-06T03:46:26.143Z,8.80
2022-11-06T03:48:55.535Z,8.85
2022-11-06T03:51:25.180Z,8.83
2022-11-06T03:53:53.738Z,8.85
2022-11-06T03:56:46.539Z,8.81
2022-11-06T03:59:15.212Z,8.78
2022-11-06T04:01:45.359Z,8.72
2022-11-06T04:04:15.734Z,8.65
2022-11-06T04:06:53.490Z,9.21
2022-11-06T04:09:40.170Z,8.51
2022-11-06T04:12:27.676Z,7.58
2022-11-06T04:14:56.749Z,7.73
2022-11-06T04:17:24.286Z,7.56
2022-11-06T04:19:52.533Z,5.93
2022-11-06T04:22:22.350Z,5.53
2022-11-06T04:25:22.595Z,5.39
2022-11-06T04:28:15.837Z,5.16
2022-11-06T04:30:51.574Z,4.78
2022-11-06T04:33:32.507Z,4.51
2022-11-06T04:35:58.928Z,4.74
2022-11-06T04:38:31.081Z,5.15
2022-11-06T04:40:57.553Z,5.48
2022-11-06T04:43:36.247Z,4.97
2022-11-06T04:46:04.723Z,4.60
2022-11-06T04:48:31.567Z,4.34
2022-11-06T04:51:03.471Z,4.35
2022-11-06T04:53:31.319Z,4.46
2022-11-06T04:56:01.286Z,4.09
2022-11-06T04:58:27.741Z,4.20
2022-11-06T05:00:54.229Z,3.94
2022-11-06T05:03:20.781Z,3.90
2022-11-06T05:05:47.273Z,4.10
2022-11-06T05:08:15.875Z,4.28
2022-11-06T05:10:43.502Z,4.21
2022-11-06T05:13:10.070Z,4.00
2022-11-06T05:15:36.533Z,4.25
2022-11-06T05:18:03.151Z,4.11
2022-11-06T05:20:29.849Z,4.12
2022-11-06T05:23:00.729Z,3.91
2022-11-06T05:25:29.376Z,4.16
2022-11-06T05:27:56.231Z,4.00
2022-11-06T05:30:23.229Z,3.94
2022-11-06T05:32:50.110Z,3.85
2022-11-06T05:35:17.256Z,3.82
2022-11-06T05:37:43.681Z,3.91
2022-11-06T05:40:10.431Z,3.97
2022-11-06T05:42:40.790Z,3.97
2022-11-06T05:45:07.730Z,3.95
2022-11-06T05:47:34.662Z,3.77
2022-11-06T05:50:01.173Z,3.70
2022-11-06T05:52:27.640Z,3.65
2022-11-06T05:54:54.153Z,3.78
2022-11-06T05:57:20.692Z,3.84
2022-11-06T05:59:47.157Z,3.83
2022-11-06T06:02:13.766Z,3.84
2022-11-06T06:04:40.409Z,3.74
2022-11-06T06:07:06.857Z,3.83
2022-11-06T06:09:33.392Z,3.87
2022-11-06T06:11:59.993Z,3.80
2022-11-06T06:14:26.487Z,3.62
2022-11-06T06:16:53.057Z,3.80
2022-11-06T06:19:19.552Z,4.57
2022-11-06T06:21:46.336Z,5.85
2022-11-06T06:24:12.875Z,6.21
2022-11-06T06:26:39.427Z,6.22
2022-11-06T06:29:05.936Z,6.18
2022-11-06T06:31:32.409Z,5.88
2022-11-06T06:33:58.907Z,5.69
2022-11-06T06:36:25.429Z,5.61
2022-11-06T06:38:51.864Z,5.67
2022-11-06T06:41:18.332Z,6.01
2022-11-06T06:43:47.280Z,6.53
2022-11-06T06:46:13.949Z,7.31
2022-11-06T06:48:40.402Z,7.50
2022-11-06T06:51:07.977Z,7.67
2022-11-06T06:53:34.911Z,7.77
2022-11-06T06:56:02.120Z,8.13
2022-11-06T06:58:29.547Z,8.31
2022-11-06T07:00:59.226Z,8.20
2022-11-06T07:03:25.791Z,8.28
2022-11-06T07:05:52.245Z,8.60
2022-11-06T07:08:18.774Z,8.20
2022-11-06T07:10:45.476Z,8.42
2022-11-06T07:13:12.113Z,8.52
2022-11-06T07:15:38.807Z,8.95
2022-11-06T07:18:06.300Z,9.17
2022-11-06T07:20:33.736Z,9.76
2022-11-06T07:23:04.821Z,9.36
2022-11-06T07:25:31.846Z,9.51
2022-11-06T07:28:05.176Z,10.13
2022-11-06T07:30:32.317Z,10.15
2022-11-06T07:33:05.877Z,10.26
2022-11-06T07:35:33.529Z,10.11
2022-11-06T07:38:02.653Z,10.91
2022-11-06T07:40:29.234Z,10.28
2022-11-06T07:42:55.711Z,10.79
2022-11-06T07:45:22.171Z,10.40
2022-11-06T07:47:48.636Z,11.90
2022-11-06T07:50:15.291Z,11.53
2022-11-06T07:52:41.780Z,11.42
2022-11-06T07:55:08.539Z,10.98
2022-11-06T07:57:35.951Z,11.04
2022-11-06T08:00:02.482Z,11.43
2022-11-06T08:02:39.207Z,11.49
2022-11-06T08:05:05.899Z,11.76
2022-11-06T08:07:32.388Z,11.41
2022-11-06T08:09:58.818Z,11.21
2022-11-06T08:12:25.270Z,12.13
2022-11-06T08:14:51.720Z,11.14
2022-11-06T08:17:18.184Z,11.37
2022-11-06T08:19:44.620Z,12.60
2022-11-06T08:22:11.176Z,12.41
2022-11-06T08:24:37.591Z,12.27
2022-11-06T08:27:04.132Z,13.25
2022-11-06T08:29:31.071Z,14.19
2022-11-06T08:31:57.533Z,14.16
2022-11-06T08:34:24.057Z,13.44
2022-11-06T08:36:51.958Z,13.42
2022-11-06T08:39:18.402Z,12.99
2022-11-06T08:41:45.204Z,13.15
2022-11-06T08:44:11.933Z,14.07
2022-11-06T08:46:38.415Z,13.53
2022-11-06T08:49:04.874Z,12.76
2022-11-06T08:51:31.312Z,12.85
2022-11-06T08:53:58.727Z,13.23
2022-11-06T08:56:25.277Z,13.62
2022-11-06T08:58:55.532Z,13.05
2022-11-06T09:01:24.085Z,13.38
2022-11-06T09:03:50.787Z,13.74
2022-11-06T09:06:17.586Z,13.10
2022-11-06T09:08:44.009Z,13.72
2022-11-06T09:11:11.928Z,14.98
2022-11-06T09:13:38.368Z,14.29
2022-11-06T09:16:08.954Z,14.76
2022-11-06T09:18:37.922Z,14.99
2022-11-06T09:21:04.468Z,16.11
2022-11-06T09:23:31.213Z,16.30
2022-11-06T09:25:58.107Z,16.12
2022-11-06T09:28:24.789Z,15.84
2022-11-06T09:30:51.413Z,14.92
2022-11-06T09:33:18.203Z,15.73
2022-11-06T09:35:45.011Z,15.64
2022-11-06T09:38:12.237Z,16.08
2022-11-06T09:40:46.790Z,16.91
2022-11-06T09:43:43.185Z,16.67
2022-11-06T09:46:21.435Z,16.63
2022-11-06T09:48:51.404Z,15.31
2022-11-06T09:51:24.248Z,16.52
2022-11-06T09:53:56.384Z,16.12
2022-11-06T09:56:25.777Z,16.57
2022-11-06T09:58:52.941Z,15.89
2022-11-06T10:01:29.650Z,16.84
2022-11-06T10:03:57.489Z,17.02
2022-11-06T10:06:24.561Z,16.81
2022-11-06T10:08:52.692Z,16.80
2022-11-06T10:11:19.152Z,17.08
2022-11-06T10:14:11.908Z,17.25
2022-11-06T10:16:50.233Z,16.96
2022-11-06T10:19:16.655Z,16.89
2022-11-06T10:21:56.512Z,16.69
2022-11-06T10:24:29.002Z,17.04
2022-11-06T10:26:56.632Z,16.57
2022-11-06T10:29:23.038Z,16.14
2022-11-06T10:32:02.519Z,16.91
2022-11-06T10:34:38.281Z,16.71
2022-11-06T10:37:18.355Z,17.58
2022-11-06T10:39:47.040Z,17.47
2022-11-06T10:42:18.180Z,16.84
2022-11-06T10:44:48.222Z,16.76
2022-11-06T10:47:21.895Z,17.55
2022-11-06T10:49:51.041Z,17.74
2022-11-06T10:52:36.198Z,18.46
2022-11-06T10:55:15.742Z,17.89
2022-11-06T10:57:42.166Z,18.65
2022-11-06T11:00:11.763Z,18.10
2022-11-06T11:02:40.451Z,17.56
2022-11-06T11:05:14.441Z,18.59
2022-11-06T11:07:42.169Z,18.18
2022-11-06T11:10:23.784Z,18.58
2022-11-06T11:12:57.556Z,18.82
2022-11-06T11:15:25.745Z,18.44
2022-11-06T11:18:09.698Z,19.29
2022-11-06T11:20:37.101Z,19.48
2022-11-06T11:23:07.017Z,18.24
2022-11-06T11:25:33.831Z,17.87
2022-11-06T11:28:13.242Z,18.48
2022-11-06T11:30:39.801Z,17.75
2022-11-06T11:33:12.645Z,17.88
2022-11-06T11:35:39.399Z,17.88
2022-11-06T11:38:14.458Z,17.76
2022-11-06T11:40:41.467Z,17.84
2022-11-06T11:43:27.795Z,17.63
2022-11-06T11:46:03.587Z,17.99
2022-11-06T11:48:43.449Z,17.77
2022-11-06T11:51:23.188Z,18.48
2022-11-06T11:53:50.256Z,19.00
2022-11-06T11:56:31.281Z,18.26
2022-11-06T11:59:06.261Z,17.80
2022-11-06T12:01:38.179Z,18.32
2022-11-06T12:04:24.948Z,17.67
2022-11-06T12:06:56.644Z,17.48
2022-11-06T12:09:23.669Z,17.03
2022-11-06T12:11:51.420Z,17.08
2022-11-06T12:14:29.337Z,17.53
2022-11-06T12:17:17.815Z,17.54
2022-11-06T12:19:47.214Z,16.78
2022-11-06T12:22:19.428Z,16.69
2022-11-06T12:24:53.255Z,16.26
2022-11-06T12:27:31.710Z,16.34
2022-11-06T12:30:13.072Z,16.75
2022-11-06T12:32:54.169Z,16.37
2022-11-06T12:35:25.253Z,16.32
2022-11-06T12:38:12.939Z,17.37
2022-11-06T12:40:41.379Z,16.93
2022-11-06T12:43:16.790Z,17.08
2022-11-06T12:45:57.278Z,16.54
2022-11-06T12:48:42.364Z,16.49
2022-11-06T12:51:19.144Z,16.26
2022-11-06T12:53:45.641Z,15.89
2022-11-06T12:56:21.929Z,16.18
2022-11-06T12:58:51.186Z,16.34
2022-11-06T13:01:27.905Z,16.55
2022-11-06T13:04:02.780Z,16.63
2022-11-06T13:06:36.481Z,16.54
2022-11-06T13:09:13.958Z,16.24
2022-11-06T13:11:46.007Z,16.28
2022-11-06T13:14:34.476Z,16.87
2022-11-06T13:17:05.787Z,17.04
2022-11-06T13:19:41.019Z,16.62
2022-11-06T13:22:10.544Z,16.79
2022-11-06T13:24:37.811Z,16.97
2022-11-06T13:27:19.270Z,17.26
2022-11-06T13:29:46.164Z,17.09
2022-11-06T13:32:16.474Z,16.92
2022-11-06T13:34:44.976Z,17.26
2022-11-06T13:37:24.212Z,16.94
2022-11-06T13:39:55.434Z,16.60
2022-11-06T13:42:36.569Z,16.55
2022-11-06T13:45:04.149Z,15.96
2022-11-06T13:47:38.702Z,15.63
2022-11-06T13:50:13.534Z,15.40
2022-11-06T13:52:50.081Z,15.12
2022-11-06T13:55:36.046Z,14.85
2022-11-06T13:58:18.016Z,14.99
2022-11-06T14:00:50.254Z,14.74
2022-11-06T14:03:19.739Z,14.89
2022-11-06T14:06:00.340Z,15.27
2022-11-06T14:08:39.075Z,15.20
2022-11-06T14:11:05.536Z,14.54
2022-11-06T14:13:33.883Z,14.35
2022-11-06T14:16:05.241Z,14.37
2022-11-06T14:18:32.586Z,14.27
2022-11-06T14:21:17.841Z,14.10
2022-11-06T14:23:47.775Z,14.19
2022-11-06T14:26:34.156Z,14.15
2022-11-06T14:29:20.511Z,14.40
2022-11-06T14:32:12.659Z,14.18
2022-11-06T14:34:40.122Z,14.87
2022-11-06T14:37:18.812Z,14.47
2022-11-06T14:39:51.650Z,14.70
2022-11-06T14:42:38.379Z,14.75
2022-11-06T14:45:31.092Z,14.51
2022-11-06T14:47:57.542Z,14.09
2022-11-06T14:50:37.364Z,13.83
2022-11-06T14:53:07.215Z,13.45
2022-11-06T14:55:45.099Z,13.22
2022-11-06T14:58:17.754Z,13.03
2022-11-06T15:00:48.804Z,12.89
2022-11-06T15:03:20.525Z,12.92
2022-11-06T15:05:52.099Z,12.77
2022-11-06T15:08:37.825Z,12.65
2022-11-06T15:11:04.339Z,12.51
2022-11-06T15:13:31.062Z,12.56
2022-11-06T15:16:10.033Z,12.41
2022-11-06T15:18:36.752Z,12.24
2022-11-06T15:21:05.861Z,11.77
2022-11-06T15:23:40.713Z,11.47
2022-11-06T15:26:25.883Z,11.30
2022-11-06T15:29:12.991Z,11.47
2022-11-06T15:31:40.780Z,11.27
2022-11-06T15:34:23.165Z,11.10
2022-11-06T15:36:53.300Z,11.05
2022-11-06T15:39:28.985Z,10.70
2022-11-06T15:41:56.614Z,10.42
2022-11-06T15:44:23.977Z,10.63
2022-11-06T15:46:58.199Z,10.20
2022-11-06T15:49:25.618Z,10.02
2022-11-06T15:51:53.640Z,10.14
2022-11-06T15:54:33.329Z,10.08
2022-11-06T15:57:05.232Z,10.06
2022-11-06T15:59:31.712Z,9.93
2022-11-06T16:01:58.264Z,9.84
2022-11-06T16:04:25.691Z,9.76
2022-11-06T16:06:53.368Z,9.89
2022-11-06T16:09:25.343Z,9.99
2022-11-06T16:11:53.108Z,9.99
2022-11-06T16:14:20.347Z,9.97
2022-11-06T16:16:48.724Z,10.01
2022-11-06T16:19:18.370Z,10.01
2022-11-06T16:21:49.168Z,10.03
2022-11-06T16:24:16.231Z,9.86
2022-11-06T16:26:45.592Z,9.96
2022-11-06T16:29:16.954Z,9.73
2022-11-06T16:31:43.618Z,9.90
2022-11-06T16:34:20.641Z,9.93
2022-11-06T16:36:58.749Z,9.87
2022-11-06T16:39:40.076Z,9.94
2022-11-06T16:42:16.859Z,9.90
2022-11-06T16:44:44.838Z,9.95
2022-11-06T16:47:12.776Z,10.00
2022-11-06T16:49:42.573Z,10.00
2022-11-06T16:52:27.082Z,10.08
2022-11-06T16:54:56.896Z,10.15
2022-11-06T16:57:25.238Z,10.25
2022-11-06T17:00:02.777Z,10.11
2022-11-06T17:02:31.525Z,10.09
2022-11-06T17:05:07.375Z,10.07
2022-11-06T17:07:33.927Z,9.99
2022-11-06T17:10:18.957Z,9.83
2022-11-06T17:12:45.400Z,9.75
2022-11-06T17:15:11.825Z,9.78
2022-11-06T17:17:40.155Z,9.72
2022-11-06T17:20:13.429Z,9.86
2022-11-06T17:22:39.876Z,9.94
2022-11-06T17:25:06.489Z,9.86
2022-11-06T17:27:32.905Z,9.63
2022-11-06T17:29:59.368Z,9.59
2022-11-06T17:32:25.840Z,9.44
2022-11-06T17:34:52.316Z,9.42
2022-11-06T17:37:21.914Z,9.32
2022-11-06T17:39:48.622Z,9.09
2022-11-06T17:42:15.085Z,9.18
2022-11-06T17:44:41.549Z,9.11
2022-11-06T17:47:08.060Z,8.93
2022-11-06T17:49:34.582Z,8.86
2022-11-06T17:52:01.340Z,8.83
2022-11-06T17:54:32.297Z,8.81
2022-11-06T17:57:00.141Z,8.57
2022-11-06T17:59:26.627Z,8.56
2022-11-06T18:01:54.592Z,8.30
2022-11-06T18:04:22.329Z,8.15
2022-11-06T18:06:50.953Z,8.19
2022-11-06T18:09:17.932Z,7.99
2022-11-06T18:11:44.460Z,7.99
2022-11-06T18:14:11.310Z,7.90
2022-11-06T18:16:43.422Z,7.87
2022-11-06T18:19:11.558Z,7.81
2022-11-06T18:21:38.231Z,7.70
2022-11-06T18:24:04.883Z,7.79
2022-11-06T18:26:31.351Z,7.78
2022-11-06T18:28:57.873Z,7.71
2022-11-06T18:31:24.373Z,7.63
2022-11-06T18:33:50.968Z,7.31
2022-11-06T18:36:17.424Z,7.46
2022-11-06T18:38:44.023Z,7.49
2022-11-06T18:41:14.984Z,7.41
2022-11-06T18:43:41.456Z,7.42
2022-11-06T18:46:09.129Z,7.37
2022-11-06T18:48:35.941Z,7.10
2022-11-06T18:51:06.537Z,6.88
2022-11-06T18:53:33.391Z,7.08
2022-11-06T18:55:59.929Z,7.19
2022-11-06T18:58:26.355Z,7.03
2022-11-06T19:00:54.376Z,7.04
2022-11-06T19:03:24.173Z,7.03
2022-11-06T19:05:51.627Z,6.88
2022-11-06T19:08:18.467Z,6.96
2022-11-06T19:10:45.601Z,6.89
2022-11-06T19:13:12.157Z,6.86
2022-11-06T19:15:38.943Z,6.87
2022-11-06T19:18:05.503Z,6.98
2022-11-06T19:20:31.940Z,6.88
2022-11-06T19:22:59.508Z,6.88
2022-11-06T19:25:26.039Z,6.89
2022-11-06T19:27:53.815Z,6.89
2022-11-06T19:30:20.247Z,6.90
2022-11-06T19:32:46.735Z,6.84
2022-11-06T19:35:15.232Z,6.60
2022-11-06T19:37:41.780Z,6.44
2022-11-06T19:40:08.447Z,6.37
2022-11-06T19:42:34.874Z,6.33
2022-11-06T19:45:01.487Z,6.39
2022-11-06T19:47:28.194Z,6.50
2022-11-06T19:49:54.627Z,6.54
2022-11-06T19:52:42.036Z,6.61
2022-11-06T19:55:25.487Z,6.56
2022-11-06T19:57:54.273Z,6.48
2022-11-06T20:00:20.753Z,6.40
2022-11-06T20:02:50.890Z,6.41
2022-11-06T20:05:17.580Z,6.24
2022-11-06T20:07:44.106Z,6.42
2022-11-06T20:10:10.573Z,6.49
2022-11-06T20:12:37.092Z,6.49
2022-11-06T20:15:03.877Z,6.68
2022-11-06T20:17:30.332Z,6.60
2022-11-06T20:19:56.756Z,6.69
2022-11-06T20:22:25.018Z,6.75
2022-11-06T20:24:51.477Z,6.72
2022-11-06T20:27:17.931Z,6.91
2022-11-06T20:29:44.781Z,7.13
2022-11-06T20:32:13.625Z,7.05
2022-11-06T20:34:42.652Z,7.27
2022-11-06T20:37:09.097Z,7.34
2022-11-06T20:39:35.810Z,7.29
2022-11-06T20:42:02.262Z,7.50
2022-11-06T20:44:28.701Z,7.45
2022-11-06T20:46:55.129Z,7.57
2022-11-06T20:49:21.629Z,7.53
2022-11-06T20:52:12.616Z,7.49
2022-11-06T20:54:34.506Z,7.61
2022-11-06T20:57:01.178Z,7.54
2022-11-06T20:59:27.692Z,7.37
2022-11-06T21:01:54.317Z,7.22
2022-11-06T21:04:21.415Z,7.29
2022-11-06T21:06:47.882Z,7.23
2022-11-06T21:09:16.589Z,7.17
2022-11-06T21:11:43.151Z,6.83
2022-11-06T21:14:09.655Z,6.75
2022-11-06T21:16:37.340Z,6.68
2022-11-06T21:19:04.832Z,6.62
2022-11-06T21:21:33.107Z,6.64
2022-11-06T21:24:00.329Z,6.64
2022-11-06T21:26:31.601Z,6.62
2022-11-06T21:28:58.278Z,6.54
2022-11-06T21:31:26.669Z,6.52
2022-11-06T21:33:55.441Z,6.43
2022-11-06T21:36:23.335Z,6.24
2022-11-06T21:38:49.742Z,6.18
2022-11-06T21:41:17.362Z,6.15
2022-11-06T21:43:44.226Z,6.13
2022-11-06T21:46:11.717Z,5.97
2022-11-06T21:48:47.244Z,6.00
2022-11-06T21:51:17.225Z,6.04
2022-11-06T21:54:02.282Z,5.87
2022-11-06T21:56:28.824Z,5.85
2022-11-06T21:58:56.580Z,5.82
2022-11-06T22:01:23.600Z,5.78
2022-11-06T22:03:50.350Z,5.78
2022-11-06T22:06:20.342Z,5.67
2022-11-06T22:08:47.528Z,5.64
2022-11-06T22:11:18.559Z,5.51
2022-11-06T22:13:45.569Z,5.61
2022-11-06T22:16:13.434Z,5.63
2022-11-06T22:18:40.252Z,5.67
2022-11-06T22:21:07.924Z,5.57
2022-11-06T22:23:34.927Z,5.50
2022-11-06T22:26:09.456Z,5.38
2022-11-06T22:28:35.919Z,5.54
2022-11-06T22:31:03.014Z,5.49
2022-11-06T22:33:30.071Z,5.34
2022-11-06T22:36:05.725Z,5.23
2022-11-06T22:38:32.753Z,5.30
2022-11-06T22:41:00.248Z,5.13
2022-11-06T22:43:27.354Z,5.05
2022-11-06T22:45:59.016Z,5.30
2022-11-06T22:48:26.038Z,5.28
2022-11-06T22:50:52.564Z,5.05
2022-11-06T22:53:19.613Z,5.04
2022-11-06T22:55:46.335Z,5.20
2022-11-06T22:58:12.766Z,5.26
2022-11-06T23:00:39.248Z,5.23
2022-11-06T23:03:05.806Z,5.09
2022-11-06T23:05:32.304Z,5.19
2022-11-06T23:07:58.751Z,5.33
2022-11-06T23:10:32.692Z,5.20
2022-11-06T23:12:59.178Z,5.20
2022-11-06T23:15:25.685Z,5.00
2022-11-06T23:17:52.456Z,4.95
2022-11-06T23:20:19.731Z,4.88
2022-11-06T23:22:46.839Z,4.77
2022-11-06T23:25:14.152Z,4.92
2022-11-06T23:27:46.963Z,4.87
2022-11-06T23:30:16.119Z,5.23
2022-11-06T23:32:42.681Z,5.04
2022-11-06T23:35:13.295Z,4.92
2022-11-06T23:37:41.373Z,5.04
2022-11-06T23:40:09.096Z,5.25
2022-11-06T23:42:35.777Z,5.28
2022-11-06T23:45:21.065Z,4.97
2022-11-06T23:47:48.158Z,4.83
2022-11-06T23:50:14.657Z,4.80
2022-11-06T23:52:41.085Z,4.88
2022-11-06T23:55:08.104Z,5.00
2022-11-06T23:57:34.591Z,4.91
